Time;durP1;ratioP1;P1;durP2;ratioP2;P2;SDS_P1;SDS_P2;PMS_P1;PMS_P2;Temp;Humidity;BMP_temperature;BMP_pressure;BME280_temperature;BME280_humidity;BME280_pressure;Samples;Min_cycle;Max_cycle;Signal;HPM_P1;HPM_P2
2024/03/07 00:00:34;;;;;;;8.68;3.95;;;7.40;99.90;;;;;;4428398;32;20122;-62
2024/03/07 00:03:00;;;;;;;10.48;3.05;;;7.40;99.90;;;;;;4424294;32;20102;-65
2024/03/07 00:05:26;;;;;;;17.42;6.70;;;7.40;99.90;;;;;;4427696;32;20113;-62
2024/03/07 00:07:52;;;;;;;8.00;3.97;;;7.40;99.90;;;;;;4424846;32;20107;-63
2024/03/07 00:10:18;;;;;;;19.60;3.22;;;7.40;99.90;;;;;;4412849;32;20061;-62
2024/03/07 00:12:44;;;;;;;5.90;3.05;;;7.40;99.90;;;;;;4427058;32;20081;-66
2024/03/07 00:15:11;;;;;;;9.18;2.87;;;7.40;99.90;;;;;;4427451;32;20077;-62
2024/03/07 00:17:38;;;;;;;1.37;0.88;;;7.40;99.90;;;;;;4426502;32;20072;-62
2024/03/07 00:20:08;;;;;;;3.92;2.10;;;7.30;99.90;;;;;;4424221;32;20525;-63
2024/03/07 00:22:35;;;;;;;10.95;4.95;;;7.30;99.90;;;;;;4426144;32;20435;-62
2024/03/07 00:25:01;;;;;;;6.25;2.85;;;7.30;99.90;;;;;;4426165;32;20124;-62
2024/03/07 00:27:27;;;;;;;7.50;2.62;;;7.30;99.90;;;;;;4426311;32;20369;-62
2024/03/07 00:29:53;;;;;;;3.20;1.95;;;7.20;99.90;;;;;;4421275;32;20073;-62
2024/03/07 00:32:20;;;;;;;8.60;1.92;;;7.20;99.90;;;;;;4424332;32;20553;-60
2024/03/07 00:34:47;;;;;;;10.75;3.22;;;7.30;99.90;;;;;;4426787;32;20077;-65
2024/03/07 00:37:12;;;;;;;7.37;4.00;;;7.30;99.90;;;;;;4427421;32;20537;-64
2024/03/07 00:39:38;;;;;;;4.30;2.95;;;7.40;99.90;;;;;;4408952;32;20057;-66
2024/03/07 00:42:04;;;;;;;8.55;3.42;;;7.30;99.90;;;;;;4427558;32;20064;-63
2024/03/07 00:44:29;;;;;;;26.90;3.47;;;7.40;99.90;;;;;;4423155;32;20091;-66
2024/03/07 00:46:56;;;;;;;7.75;2.37;;;7.40;99.90;;;;;;4424754;32;20549;-66
2024/03/07 00:49:22;;;;;;;13.77;3.12;;;7.40;99.90;;;;;;4410000;32;20563;-66
2024/03/07 00:51:48;;;;;;;6.10;2.92;;;7.30;99.90;;;;;;4422453;32;21038;-65
2024/03/07 00:54:13;;;;;;;11.63;3.47;;;7.40;99.90;;;;;;4426215;32;20119;-65
2024/03/07 00:56:39;;;;;;;3.67;2.55;;;7.40;99.90;;;;;;4426343;32;20058;-66
2024/03/07 00:59:05;;;;;;;26.90;3.87;;;7.40;99.90;;;;;;4426229;32;20065;-65
2024/03/07 01:01:33;;;;;;;6.65;3.72;;;7.40;99.90;;;;;;4399660;32;20077;-65
2024/03/07 01:04:00;;;;;;;5.18;3.12;;;7.40;99.90;;;;;;4429593;32;20177;-64
2024/03/07 01:06:25;;;;;;;12.55;3.53;;;7.40;99.90;;;;;;4428227;32;20065;-65
2024/03/07 01:08:51;;;;;;;6.60;3.60;;;7.40;99.90;;;;;;4426089;32;20427;-65
2024/03/07 01:11:17;;;;;;;35.97;3.12;;;7.40;99.90;;;;;;4426350;32;20081;-65
2024/03/07 01:13:43;;;;;;;3.53;2.45;;;7.30;99.90;;;;;;4426883;32;20161;-65
2024/03/07 01:16:08;;;;;;;10.00;4.07;;;7.40;99.90;;;;;;4424676;32;20077;-65
2024/03/07 01:18:35;;;;;;;15.02;4.32;;;7.40;99.90;;;;;;4413466;32;20081;-65
2024/03/07 01:21:01;;;;;;;11.50;3.72;;;7.40;99.90;;;;;;4424937;32;20089;-66
2024/03/07 01:23:28;;;;;;;8.43;2.33;;;7.40;99.90;;;;;;4414986;32;20061;-65
2024/03/07 01:25:55;;;;;;;36.72;3.20;;;7.30;99.90;;;;;;4428497;32;20419;-65
2024/03/07 01:28:22;;;;;;;3.40;2.25;;;7.30;99.90;;;;;;4422998;32;20065;-65
2024/03/07 01:30:48;;;;;;;3.25;1.85;;;7.30;99.90;;;;;;4425910;32;20077;-65
2024/03/07 01:33:13;;;;;;;11.02;2.53;;;7.30;99.90;;;;;;4426133;32;20525;-64
2024/03/07 01:35:39;;;;;;;6.60;2.47;;;7.30;99.90;;;;;;4424927;32;20556;-66
2024/03/07 01:38:05;;;;;;;5.87;2.97;;;7.20;99.90;;;;;;4422518;32;20555;-66
2024/03/07 01:40:30;;;;;;;8.05;2.97;;;7.10;99.90;;;;;;4424942;32;20466;-66
2024/03/07 01:42:56;;;;;;;3.55;2.03;;;7.10;99.90;;;;;;4429016;32;20065;-66
2024/03/07 01:45:21;;;;;;;16.25;3.70;;;7.00;99.90;;;;;;4416901;32;20121;-66
2024/03/07 01:47:47;;;;;;;12.73;2.97;;;7.00;99.90;;;;;;4428731;32;20526;-66
2024/03/07 01:50:14;;;;;;;10.65;3.05;;;7.00;99.90;;;;;;4428466;32;20132;-64
2024/03/07 01:52:41;;;;;;;34.47;3.00;;;6.90;99.90;;;;;;4428418;32;20062;-65
2024/03/07 01:55:07;;;;;;;7.97;3.42;;;6.90;99.90;;;;;;4430653;32;20129;-65
2024/03/07 01:57:34;;;;;;;11.60;3.75;;;6.90;99.90;;;;;;4430487;32;20482;-65
2024/03/07 02:00:06;;;;;;;2.70;1.90;;;7.00;99.90;;;;;;4431106;32;20068;-65
2024/03/07 02:02:32;;;;;;;7.47;3.65;;;6.90;99.90;;;;;;4428330;32;20411;-65
2024/03/07 02:04:58;;;;;;;5.20;3.15;;;6.90;99.90;;;;;;4428668;32;20061;-66
2024/03/07 02:07:23;;;;;;;2.97;2.17;;;6.90;99.90;;;;;;4425375;32;20077;-65
2024/03/07 02:09:50;;;;;;;26.55;2.15;;;6.90;99.90;;;;;;4413666;32;20156;-65
2024/03/07 02:12:15;;;;;;;15.95;2.15;;;6.90;99.90;;;;;;4424690;32;20076;-65
2024/03/07 02:14:42;;;;;;;2.10;1.90;;;6.90;99.90;;;;;;4429419;32;20057;-65
2024/03/07 02:17:07;;;;;;;6.80;2.92;;;6.70;99.90;;;;;;4429165;32;20398;-66
2024/03/07 02:19:33;;;;;;;11.90;3.55;;;6.70;99.90;;;;;;4431419;32;20127;-65
2024/03/07 02:21:59;;;;;;;5.50;2.78;;;6.70;99.90;;;;;;4415279;32;20085;-65
2024/03/07 02:24:25;;;;;;;3.92;2.12;;;6.70;99.90;;;;;;4428858;32;20077;-65
2024/03/07 02:26:50;;;;;;;12.52;4.20;;;6.70;99.90;;;;;;4426029;32;20131;-65
2024/03/07 02:29:16;;;;;;;3.58;2.60;;;6.70;99.90;;;;;;4426329;32;20073;-65
2024/03/07 02:31:42;;;;;;;23.85;3.00;;;6.70;99.90;;;;;;4429162;32;20514;-65
2024/03/07 02:34:07;;;;;;;14.23;3.25;;;6.70;99.90;;;;;;4424298;32;20085;-65
2024/03/07 02:36:33;;;;;;;4.57;2.67;;;6.70;99.90;;;;;;4424642;32;20057;-65
2024/03/07 02:39:00;;;;;;;3.17;1.62;;;6.70;99.90;;;;;;4425458;32;20116;-64
2024/03/07 02:41:25;;;;;;;1.52;1.25;;;6.60;99.90;;;;;;4423594;32;20078;-65
2024/03/07 02:43:51;;;;;;;8.35;2.70;;;6.50;99.90;;;;;;4429609;32;20077;-66
2024/03/07 02:46:17;;;;;;;17.67;3.30;;;6.50;99.90;;;;;;4429381;32;20104;-65
2024/03/07 02:48:43;;;;;;;2.22;2.05;;;6.50;99.90;;;;;;4429233;32;20065;-65
2024/03/07 02:51:09;;;;;;;2.47;1.75;;;6.50;99.90;;;;;;4425824;32;20073;-65
2024/03/07 02:53:35;;;;;;;8.07;4.10;;;6.40;99.90;;;;;;4427785;32;20077;-65
2024/03/07 02:56:00;;;;;;;9.93;3.10;;;6.30;99.90;;;;;;4424735;32;20057;-65
2024/03/07 02:58:26;;;;;;;6.80;2.72;;;6.40;99.90;;;;;;4427354;32;20081;-65
2024/03/07 03:00:57;;;;;;;3.47;2.85;;;6.30;99.90;;;;;;4422762;32;20087;-65
2024/03/07 03:03:23;;;;;;;6.68;3.15;;;6.30;99.90;;;;;;4412505;32;20139;-66
2024/03/07 03:05:48;;;;;;;13.15;3.35;;;6.30;99.90;;;;;;4426830;32;20192;-66
2024/03/07 03:08:14;;;;;;;0.90;0.90;;;6.30;99.90;;;;;;4422244;32;20089;-66
2024/03/07 03:10:39;;;;;;;8.20;3.87;;;6.30;99.90;;;;;;4423988;32;20089;-64
2024/03/07 03:13:05;;;;;;;7.35;3.30;;;6.40;99.90;;;;;;4413686;32;20411;-66
2024/03/07 03:15:31;;;;;;;5.30;2.60;;;6.40;99.90;;;;;;4426484;32;20077;-66
2024/03/07 03:17:59;;;;;;;10.93;3.72;;;6.40;99.90;;;;;;4427265;32;20089;-65
2024/03/07 03:20:25;;;;;;;20.15;4.32;;;6.40;99.90;;;;;;4413534;32;20128;-67
2024/03/07 03:22:53;;;;;;;12.88;2.87;;;6.30;99.90;;;;;;4414489;32;20469;-66
2024/03/07 03:25:20;;;;;;;18.67;2.10;;;6.30;99.90;;;;;;4425097;32;20112;-67
2024/03/07 03:27:46;;;;;;;6.35;2.47;;;6.40;99.90;;;;;;4421925;32;20089;-64
2024/03/07 03:30:14;;;;;;;4.43;2.65;;;6.40;99.90;;;;;;4427001;32;20077;-66
2024/03/07 03:32:40;;;;;;;5.12;2.03;;;6.30;99.90;;;;;;4426724;32;20093;-64
2024/03/07 03:35:07;;;;;;;4.03;2.47;;;6.30;99.90;;;;;;4412192;32;20098;-65
2024/03/07 03:37:32;;;;;;;8.77;2.08;;;6.30;99.90;;;;;;4424610;32;20072;-65
2024/03/07 03:39:58;;;;;;;8.50;2.62;;;6.20;99.90;;;;;;4420197;32;20070;-64
2024/03/07 03:42:24;;;;;;;2.08;1.83;;;6.20;99.90;;;;;;4408918;32;20061;-64
2024/03/07 03:44:49;;;;;;;22.50;2.87;;;6.20;99.90;;;;;;4426279;32;20053;-65
2024/03/07 03:47:15;;;;;;;13.23;2.05;;;6.20;99.90;;;;;;4425639;32;20132;-65
2024/03/07 03:49:40;;;;;;;2.15;2.00;;;6.10;99.90;;;;;;4429277;32;20081;-65
2024/03/07 03:52:06;;;;;;;9.43;2.83;;;6.10;99.90;;;;;;4426300;32;20072;-65
2024/03/07 03:54:31;;;;;;;10.32;2.37;;;6.00;99.90;;;;;;4426517;32;20122;-65
2024/03/07 03:57:00;;;;;;;9.00;3.40;;;6.00;99.90;;;;;;4425065;32;20113;-65
2024/03/07 03:59:25;;;;;;;5.40;2.05;;;6.10;99.90;;;;;;4423923;32;20421;-65
2024/03/07 04:01:51;;;;;;;5.45;2.15;;;6.10;99.90;;;;;;4420704;32;20583;-65
2024/03/07 04:04:16;;;;;;;8.27;2.33;;;6.00;99.90;;;;;;4420924;32;20085;-67
2024/03/07 04:06:42;;;;;;;8.52;2.40;;;5.90;99.90;;;;;;4425445;32;20548;-65
2024/03/07 04:09:07;;;;;;;7.32;2.83;;;5.90;99.90;;;;;;4427021;32;20049;-65
2024/03/07 04:11:33;;;;;;;1.92;1.80;;;5.80;99.90;;;;;;4423440;32;20106;-65
2024/03/07 04:14:01;;;;;;;3.05;2.25;;;5.70;99.90;;;;;;4426096;32;20104;-65
2024/03/07 04:16:26;;;;;;;9.95;3.75;;;5.70;99.90;;;;;;4414136;32;20072;-64
2024/03/07 04:18:52;;;;;;;4.07;2.03;;;5.70;99.90;;;;;;4427186;32;20057;-64
2024/03/07 04:21:17;;;;;;;8.32;3.50;;;5.70;99.90;;;;;;4425911;32;20291;-64
2024/03/07 04:23:45;;;;;;;3.33;1.85;;;5.60;99.90;;;;;;4427312;32;20060;-64
2024/03/07 04:26:11;;;;;;;3.22;1.62;;;5.60;99.90;;;;;;4424071;32;20124;-64
2024/03/07 04:28:37;;;;;;;1.85;1.25;;;5.50;99.90;;;;;;4422935;32;20083;-64
2024/03/07 04:31:02;;;;;;;9.48;3.25;;;5.50;99.90;;;;;;4426451;32;20079;-66
2024/03/07 04:33:28;;;;;;;4.95;2.05;;;5.50;99.90;;;;;;4424175;32;20064;-64
2024/03/07 04:35:53;;;;;;;3.97;1.80;;;5.50;99.90;;;;;;4429564;32;20064;-64
2024/03/07 04:38:19;;;;;;;12.00;3.67;;;5.50;99.90;;;;;;4411391;32;20065;-64
2024/03/07 04:40:44;;;;;;;1.50;1.40;;;5.40;99.90;;;;;;4427313;32;20069;-63
2024/03/07 04:43:10;;;;;;;3.90;2.37;;;5.40;99.90;;;;;;4426742;32;20714;-63
2024/03/07 04:45:36;;;;;;;2.95;1.85;;;5.40;99.90;;;;;;4425580;32;20082;-64
2024/03/07 04:48:01;;;;;;;3.10;1.50;;;5.30;99.90;;;;;;4428143;32;20058;-64
2024/03/07 04:50:28;;;;;;;6.53;2.42;;;5.30;99.90;;;;;;4430414;32;20112;-64
2024/03/07 04:52:54;;;;;;;2.05;1.37;;;5.30;99.90;;;;;;4425485;32;20069;-65
2024/03/07 04:55:19;;;;;;;6.78;2.45;;;5.30;99.90;;;;;;4426308;32;20461;-66
2024/03/07 04:57:45;;;;;;;2.00;1.23;;;5.30;99.90;;;;;;4425656;32;20062;-63
2024/03/07 05:02:35;;;;;;;1.98;1.80;;;5.20;99.90;;;;;;4425108;32;20382;-63
2024/03/07 05:05:01;;;;;;;4.85;2.37;;;5.20;99.90;;;;;;4428186;32;20080;-63
2024/03/07 05:07:35;;;;;;;10.57;2.42;;;5.10;99.90;;;;;;4428706;32;20117;-65
2024/03/07 05:10:01;;;;;;;18.27;2.58;;;5.10;99.90;;;;;;4425362;32;20427;-64
2024/03/07 05:12:27;;;;;;;3.78;2.42;;;5.00;99.90;;;;;;4429146;32;20066;-64
2024/03/07 05:14:53;;;;;;;1.58;1.37;;;5.00;99.90;;;;;;4427181;32;20504;-65
2024/03/07 05:17:19;;;;;;;1.27;1.17;;;5.00;99.90;;;;;;4428012;32;21509;-66
2024/03/07 05:19:45;;;;;;;7.62;1.98;;;5.10;99.90;;;;;;4428161;32;20117;-64
2024/03/07 05:22:15;;;;;;;1.40;1.25;;;5.00;99.90;;;;;;4403493;32;20085;-65
2024/03/07 05:24:42;;;;;;;2.30;1.92;;;5.00;99.90;;;;;;4422547;32;20549;-64
2024/03/07 05:27:08;;;;;;;2.75;1.58;;;5.00;99.90;;;;;;4425117;32;20084;-62
2024/03/07 05:29:33;;;;;;;1.08;1.05;;;5.00;99.90;;;;;;4422345;32;20490;-62
2024/03/07 05:34:33;;;;;;;1.35;1.23;;;4.80;99.90;;;;;;4419784;32;20066;-61
2024/03/07 05:36:59;;;;;;;5.07;3.83;;;4.80;99.90;;;;;;4423620;32;20121;-61
2024/03/07 05:39:24;;;;;;;10.90;2.30;;;4.80;99.90;;;;;;4423616;32;20061;-62
2024/03/07 05:41:50;;;;;;;2.67;1.58;;;4.80;99.90;;;;;;4420395;32;20061;-62
2024/03/07 05:44:15;;;;;;;14.45;1.85;;;4.70;99.90;;;;;;4424924;32;20178;-61
2024/03/07 05:46:45;;;;;;;1.23;1.12;;;4.70;99.90;;;;;;4428392;32;21166;-61
2024/03/07 05:49:11;;;;;;;5.18;1.92;;;4.80;99.90;;;;;;4431319;32;20217;-61
2024/03/07 05:51:37;;;;;;;6.97;3.83;;;4.70;99.90;;;;;;4423782;32;20085;-63
2024/03/07 05:54:06;;;;;;;3.28;2.20;;;4.70;99.90;;;;;;4424368;32;20414;-62
2024/03/07 05:56:35;;;;;;;1.40;1.27;;;4.70;99.90;;;;;;4425449;32;20122;-63
2024/03/07 05:59:04;;;;;;;3.70;1.73;;;4.70;99.90;;;;;;4422987;32;20072;-63
2024/03/07 06:01:32;;;;;;;3.15;1.95;;;4.80;99.90;;;;;;4424666;32;20077;-62
2024/03/07 06:03:59;;;;;;;6.40;3.00;;;4.80;99.90;;;;;;4424677;32;20078;-64
2024/03/07 06:06:24;;;;;;;1.65;1.52;;;4.70;99.90;;;;;;4410375;32;20150;-62
2024/03/07 06:08:50;;;;;;;4.65;2.00;;;4.70;99.90;;;;;;4422007;32;20077;-62
2024/03/07 06:11:19;;;;;;;4.72;2.35;;;4.70;99.90;;;;;;4426471;32;20074;-63
2024/03/07 06:13:46;;;;;;;3.05;1.77;;;4.70;99.90;;;;;;4412943;32;20610;-67
2024/03/07 06:16:14;;;;;;;1.20;1.12;;;4.70;99.90;;;;;;4424595;32;20068;-67
2024/03/07 06:18:41;;;;;;;1.17;1.08;;;4.70;99.90;;;;;;4424459;32;20097;-65
2024/03/07 06:21:08;;;;;;;4.35;1.80;;;4.60;99.90;;;;;;4411824;32;20102;-66
2024/03/07 06:23:33;;;;;;;1.20;1.10;;;4.70;99.90;;;;;;4420467;32;20085;-66
2024/03/07 06:26:00;;;;;;;1.37;1.23;;;4.70;99.90;;;;;;4402281;32;20717;-65
2024/03/07 06:28:28;;;;;;;1.00;0.95;;;4.80;99.90;;;;;;4402345;32;20078;-66
2024/03/07 06:30:54;;;;;;;2.42;2.20;;;4.80;99.90;;;;;;4413457;32;20176;-66
2024/03/07 06:33:20;;;;;;;4.00;2.33;;;4.80;99.90;;;;;;4390300;32;20090;-65
2024/03/07 06:35:46;;;;;;;1.65;1.40;;;4.80;99.90;;;;;;4414712;32;20429;-66
2024/03/07 06:38:12;;;;;;;0.73;0.73;;;4.70;99.90;;;;;;4406547;32;20389;-64
2024/03/07 06:40:40;;;;;;;2.40;1.52;;;4.70;99.90;;;;;;4412222;32;20157;-63
2024/03/07 06:43:06;;;;;;;3.75;1.95;;;4.70;99.90;;;;;;4413631;32;20069;-64
2024/03/07 06:45:34;;;;;;;2.10;1.67;;;4.70;99.90;;;;;;4415441;32;20144;-64
2024/03/07 06:48:00;;;;;;;0.60;0.60;;;4.70;99.90;;;;;;4417493;32;20100;-62
2024/03/07 06:50:28;;;;;;;4.32;2.33;;;4.90;99.90;;;;;;4404741;32;20586;-63
2024/03/07 06:52:54;;;;;;;7.53;1.30;;;4.90;99.90;;;;;;4400463;32;20495;-64
2024/03/07 06:55:20;;;;;;;2.00;1.75;;;4.80;99.90;;;;;;4396696;32;20225;-63
2024/03/07 06:57:46;;;;;;;6.05;3.15;;;4.80;99.90;;;;;;4387411;32;20423;-65
2024/03/07 07:00:19;;;;;;;0.98;0.88;;;4.90;99.90;;;;;;4385735;32;20113;-64
2024/03/07 07:02:46;;;;;;;1.60;1.35;;;4.90;99.90;;;;;;4362290;32;20264;-66
2024/03/07 07:05:12;;;;;;;2.83;1.83;;;4.90;99.90;;;;;;4374244;32;20441;-66
2024/03/07 07:07:39;;;;;;;7.15;2.17;;;5.00;99.90;;;;;;4375126;32;22200;-66
2024/03/07 07:10:09;;;;;;;3.92;2.72;;;5.00;99.90;;;;;;4382376;32;20730;-64
2024/03/07 07:12:35;;;;;;;2.30;1.12;;;5.00;99.90;;;;;;4380320;32;20238;-66
2024/03/07 07:15:01;;;;;;;1.20;1.10;;;5.00;99.90;;;;;;4384551;32;20589;-64
2024/03/07 07:17:28;;;;;;;0.80;0.80;;;5.10;99.90;;;;;;4387384;32;20089;-66
2024/03/07 07:19:55;;;;;;;0.90;0.90;;;5.10;99.90;;;;;;4387701;32;20089;-64
2024/03/07 07:22:21;;;;;;;0.85;0.77;;;5.20;99.90;;;;;;4381197;32;20618;-66
2024/03/07 07:24:47;;;;;;;1.02;0.93;;;5.20;99.90;;;;;;4378381;32;20097;-67
2024/03/07 07:27:12;;;;;;;22.35;2.15;;;5.30;99.90;;;;;;4379787;32;20080;-65
2024/03/07 07:29:38;;;;;;;0.80;0.80;;;5.20;99.90;;;;;;4383870;32;20361;-64
2024/03/07 07:32:04;;;;;;;0.73;0.73;;;5.30;99.90;;;;;;4383444;32;20093;-65
2024/03/07 07:34:30;;;;;;;4.80;2.28;;;5.40;99.90;;;;;;4376495;32;20800;-66
2024/03/07 07:36:56;;;;;;;0.68;0.68;;;5.40;99.90;;;;;;4388475;32;20168;-66
2024/03/07 07:39:22;;;;;;;0.75;0.75;;;5.50;99.90;;;;;;4387679;32;20109;-65
2024/03/07 07:41:48;;;;;;;3.47;1.30;;;5.50;99.90;;;;;;4385707;32;20341;-64
2024/03/07 07:44:13;;;;;;;8.52;1.37;;;5.40;99.90;;;;;;4383028;32;20086;-65
2024/03/07 07:46:40;;;;;;;11.98;1.58;;;5.50;99.90;;;;;;4376371;32;20121;-64
2024/03/07 07:49:06;;;;;;;2.92;1.83;;;5.60;99.90;;;;;;4376198;32;20140;-65
2024/03/07 07:51:33;;;;;;;8.68;2.00;;;5.60;99.90;;;;;;4376759;32;20748;-65
2024/03/07 07:53:59;;;;;;;10.35;2.53;;;5.70;99.90;;;;;;4382537;32;20110;-63
2024/03/07 07:56:28;;;;;;;1.42;1.12;;;5.80;99.90;;;;;;4377141;32;20164;-65
2024/03/07 07:58:54;;;;;;;2.42;1.12;;;5.70;99.90;;;;;;4385116;32;20106;-64
2024/03/07 08:01:20;;;;;;;3.37;1.35;;;5.90;99.90;;;;;;4379024;32;20160;-65
2024/03/07 08:03:46;;;;;;;1.70;1.27;;;5.90;99.90;;;;;;4375754;32;20204;-66
2024/03/07 08:06:12;;;;;;;1.45;0.88;;;5.90;99.90;;;;;;4384921;32;20453;-63
2024/03/07 08:08:37;;;;;;;0.88;0.88;;;6.00;99.90;;;;;;4393852;32;20077;-64
2024/03/07 08:11:03;;;;;;;1.70;1.35;;;6.10;99.90;;;;;;4380505;32;20088;-64
2024/03/07 08:13:28;;;;;;;1.52;1.17;;;6.20;99.90;;;;;;4387898;32;20802;-65
2024/03/07 08:15:54;;;;;;;2.30;1.98;;;6.30;99.90;;;;;;4371656;32;20081;-66
2024/03/07 08:18:20;;;;;;;3.33;1.73;;;6.40;99.90;;;;;;4381566;32;20680;-63
2024/03/07 08:20:46;;;;;;;1.92;1.23;;;6.50;99.90;;;;;;4386740;32;20262;-66
2024/03/07 08:23:12;;;;;;;1.58;1.48;;;6.60;99.90;;;;;;4368646;32;20091;-62
2024/03/07 08:25:40;;;;;;;6.07;1.98;;;6.70;99.90;;;;;;4374105;32;20090;-65
2024/03/07 08:28:06;;;;;;;10.15;1.42;;;6.80;99.90;;;;;;4386172;32;20141;-65
2024/03/07 08:30:34;;;;;;;2.72;1.20;;;6.80;99.90;;;;;;4395007;32;20248;-62
2024/03/07 08:33:02;;;;;;;1.30;1.20;;;6.70;99.90;;;;;;4390840;32;20097;-65
2024/03/07 08:35:29;;;;;;;0.95;0.70;;;6.70;99.90;;;;;;4393486;32;21836;-62
2024/03/07 08:37:57;;;;;;;3.55;0.50;;;6.60;99.90;;;;;;4393372;32;20089;-63
2024/03/07 08:40:30;;;;;;;1.87;1.35;;;6.80;99.90;;;;;;4400720;32;20528;-64
2024/03/07 08:42:58;;;;;;;0.52;0.52;;;6.80;99.90;;;;;;4394839;32;20448;-66
2024/03/07 08:45:24;;;;;;;1.92;1.23;;;6.90;99.90;;;;;;4394471;32;20081;-65
2024/03/07 08:47:51;;;;;;;2.05;1.42;;;6.90;99.90;;;;;;4395770;32;20117;-64
2024/03/07 08:50:17;;;;;;;2.15;0.75;;;7.00;99.90;;;;;;4389873;32;20534;-65
2024/03/07 08:52:44;;;;;;;0.85;0.85;;;7.10;99.90;;;;;;4390386;32;20585;-64
2024/03/07 08:55:14;;;;;;;2.65;0.77;;;7.00;99.90;;;;;;4393386;32;20093;-64
2024/03/07 08:57:41;;;;;;;0.75;0.75;;;7.30;99.90;;;;;;4399000;32;20081;-65
2024/03/07 09:02:36;;;;;;;2.37;1.17;;;7.60;99.90;;;;;;4397872;32;20204;-65
2024/03/07 09:05:02;;;;;;;0.80;0.80;;;7.70;99.90;;;;;;4398323;32;20138;-65
2024/03/07 09:07:29;;;;;;;2.05;1.37;;;7.60;99.90;;;;;;4397067;32;20093;-64
2024/03/07 09:09:55;;;;;;;0.62;0.62;;;7.50;99.90;;;;;;4394378;32;20484;-66
2024/03/07 09:12:20;;;;;;;2.90;1.37;;;7.50;99.90;;;;;;4402095;32;20101;-63
2024/03/07 09:14:46;;;;;;;1.15;1.05;;;7.50;99.90;;;;;;4401827;32;20415;-64
2024/03/07 09:17:12;;;;;;;0.88;0.88;;;7.60;99.90;;;;;;4401797;32;20089;-64
2024/03/07 09:19:37;;;;;;;1.55;0.80;;;7.70;99.90;;;;;;4378131;32;20139;-64
2024/03/07 09:22:03;;;;;;;2.15;1.70;;;7.80;99.90;;;;;;4400011;32;20110;-64
2024/03/07 09:24:30;;;;;;;1.80;0.75;;;7.80;99.90;;;;;;4404295;32;20114;-63
2024/03/07 09:26:56;;;;;;;1.40;0.80;;;7.90;99.90;;;;;;4401323;32;20151;-64
2024/03/07 09:29:23;;;;;;;2.15;1.40;;;8.10;99.90;;;;;;4396755;32;20560;-65
2024/03/07 09:31:51;;;;;;;0.65;0.65;;;8.10;99.90;;;;;;4400788;32;20454;-64
2024/03/07 09:34:18;;;;;;;1.95;1.00;;;8.20;99.90;;;;;;4394610;32;20209;-64
2024/03/07 09:36:44;;;;;;;4.80;1.05;;;8.30;99.90;;;;;;4383800;32;20188;-65
2024/03/07 09:39:09;;;;;;;3.20;2.08;;;8.50;99.90;;;;;;4393987;32;20106;-64
2024/03/07 09:41:36;;;;;;;2.12;1.27;;;8.60;99.90;;;;;;4406202;32;20191;-64
2024/03/07 09:44:02;;;;;;;0.80;0.80;;;8.70;99.90;;;;;;4399359;32;20081;-64
2024/03/07 09:46:28;;;;;;;2.08;1.10;;;8.80;99.90;;;;;;4392084;32;20139;-65
2024/03/07 09:48:58;;;;;;;1.20;0.70;;;9.00;99.90;;;;;;4384181;32;20589;-64
2024/03/07 09:51:24;;;;;;;2.72;1.25;;;9.00;99.90;;;;;;4387293;32;20127;-66
2024/03/07 09:53:51;;;;;;;0.80;0.80;;;8.90;99.90;;;;;;4398061;32;20073;-66
2024/03/07 09:56:20;;;;;;;2.75;1.35;;;8.90;99.90;;;;;;4397644;32;21071;-64
2024/03/07 09:58:49;;;;;;;0.82;0.73;;;9.00;99.90;;;;;;4403455;32;20061;-65
2024/03/07 10:01:19;;;;;;;2.47;1.12;;;9.40;99.90;;;;;;4405572;32;20093;-64
2024/03/07 10:03:47;;;;;;;1.87;1.27;;;9.60;99.90;;;;;;4402580;32;20080;-64
2024/03/07 10:06:14;;;;;;;12.45;1.52;;;9.50;99.90;;;;;;4384898;32;20636;-65
2024/03/07 10:08:41;;;;;;;0.77;0.77;;;9.50;99.90;;;;;;4375354;32;20132;-64
2024/03/07 10:11:09;;;;;;;1.00;1.00;;;9.30;99.90;;;;;;4374663;32;22047;-65
2024/03/07 10:13:35;;;;;;;0.70;0.70;;;9.30;99.90;;;;;;4397623;32;20619;-66
2024/03/07 10:16:01;;;;;;;0.90;0.90;;;9.40;99.90;;;;;;4390232;32;20105;-65
2024/03/07 10:18:27;;;;;;;1.23;1.12;;;9.60;99.90;;;;;;4392449;32;20644;-64
2024/03/07 10:20:55;;;;;;;0.80;0.80;;;9.60;99.90;;;;;;4383647;32;20168;-67
2024/03/07 10:23:21;;;;;;;6.53;1.52;;;9.70;99.90;;;;;;4387243;32;20319;-64
2024/03/07 10:25:47;;;;;;;0.93;0.93;;;10.10;99.90;;;;;;4381487;32;20118;-64
2024/03/07 10:28:12;;;;;;;1.27;1.17;;;10.00;99.90;;;;;;4387731;32;20403;-64
2024/03/07 10:30:40;;;;;;;3.10;1.02;;;9.80;99.90;;;;;;4374623;32;21736;-65
2024/03/07 10:33:07;;;;;;;0.85;0.85;;;9.50;99.90;;;;;;4388007;32;20096;-65
2024/03/07 10:35:33;;;;;;;4.55;2.15;;;9.60;99.90;;;;;;4371307;32;20105;-65
2024/03/07 10:38:00;;;;;;;1.27;1.00;;;9.90;99.90;;;;;;4379535;32;20235;-66
2024/03/07 10:40:27;;;;;;;1.73;0.90;;;10.10;99.90;;;;;;4374042;32;20246;-65
2024/03/07 10:42:57;;;;;;;0.82;0.82;;;10.20;99.90;;;;;;4383347;32;20090;-64
2024/03/07 10:45:23;;;;;;;0.82;0.82;;;10.00;99.90;;;;;;4381667;32;20454;-65
2024/03/07 10:47:57;;;;;;;0.73;0.62;;;9.90;99.90;;;;;;4385225;32;20463;-64
2024/03/07 10:50:48;;;;;;;3.78;1.15;;;9.90;99.90;;;;;;4387845;32;20849;-65
2024/03/07 10:53:31;;;;;;;0.70;0.70;;;10.10;99.90;;;;;;4374060;32;20534;-66
2024/03/07 10:56:36;;;;;;;3.37;1.08;;;10.30;99.90;;;;;;4372149;32;20096;-66
2024/03/07 10:59:19;;;;;;;0.70;0.70;;;10.30;99.90;;;;;;4378265;32;20105;-63
2024/03/07 11:04:14;;;;;;;0.90;0.90;;;10.00;99.90;;;;;;4387472;32;20093;-66
2024/03/07 11:06:41;;;;;;;2.30;1.52;;;9.80;99.90;;;;;;4380140;32;20085;-66
2024/03/07 11:09:10;;;;;;;50.95;1.10;;;10.00;99.90;;;;;;4380789;32;20097;-66
2024/03/07 11:11:40;;;;;;;6.60;1.77;;;10.20;99.90;;;;;;4391155;32;20114;-66
2024/03/07 11:14:06;;;;;;;0.70;0.70;;;10.20;99.90;;;;;;4387572;32;20085;-66
2024/03/07 11:16:34;;;;;;;0.85;0.80;;;10.40;99.90;;;;;;4388095;32;20101;-66
2024/03/07 11:19:27;;;;;;;2.95;1.60;;;10.60;99.90;;;;;;4391216;32;20093;-66
2024/03/07 11:21:55;;;;;;;0.65;0.65;;;10.70;99.90;;;;;;4385018;32;20110;-66
2024/03/07 11:24:24;;;;;;;0.77;0.77;;;10.70;99.90;;;;;;4394995;32;20094;-66
2024/03/07 11:26:53;;;;;;;1.27;1.17;;;10.60;99.90;;;;;;4397709;32;20110;-65
2024/03/07 11:29:54;;;;;;;3.35;0.85;;;10.70;99.90;;;;;;4403666;32;20518;-66
2024/03/07 11:32:22;;;;;;;0.88;0.88;;;10.80;99.90;;;;;;4401545;32;20458;-66
2024/03/07 11:34:48;;;;;;;1.50;1.02;;;11.00;99.90;;;;;;4398139;32;20098;-66
2024/03/07 11:37:22;;;;;;;2.92;1.55;;;11.40;99.90;;;;;;4401996;32;20081;-64
2024/03/07 11:39:50;;;;;;;0.60;0.60;;;11.60;99.70;;;;;;4400693;32;20469;-64
2024/03/07 11:42:26;;;;;;;3.50;1.50;;;12.00;98.90;;;;;;4384249;32;20089;-64
2024/03/07 11:44:56;;;;;;;0.68;0.68;;;12.10;98.30;;;;;;4390841;32;20596;-65
2024/03/07 11:47:24;;;;;;;0.80;0.80;;;12.00;98.40;;;;;;4404897;32;20192;-66
2024/03/07 11:49:52;;;;;;;2.70;1.62;;;12.20;98.30;;;;;;4401240;32;20541;-65
2024/03/07 11:52:18;;;;;;;0.43;0.43;;;12.20;98.20;;;;;;4393102;32;82795;-66
2024/03/07 11:54:47;;;;;;;0.62;0.60;;;12.30;98.30;;;;;;4370961;32;21788;-66
2024/03/07 11:57:16;;;;;;;22.55;2.03;;;12.30;98.00;;;;;;4384983;32;20077;-65
2024/03/07 11:59:45;;;;;;;1.65;1.12;;;12.60;97.80;;;;;;4390455;32;20596;-66
2024/03/07 12:02:13;;;;;;;1.35;1.25;;;12.70;96.80;;;;;;4396442;32;21409;-65
2024/03/07 12:04:40;;;;;;;2.35;1.40;;;12.70;97.20;;;;;;4388018;32;20447;-66
2024/03/07 12:07:06;;;;;;;0.65;0.65;;;13.00;97.20;;;;;;4399230;32;20081;-66
2024/03/07 12:09:35;;;;;;;0.98;0.88;;;13.40;95.60;;;;;;4397034;32;20101;-66
2024/03/07 12:12:02;;;;;;;1.40;0.80;;;13.30;95.10;;;;;;4390940;32;20205;-66
2024/03/07 12:14:27;;;;;;;1.45;1.23;;;13.10;94.50;;;;;;4386444;32;20086;-66
2024/03/07 12:16:53;;;;;;;0.70;0.70;;;13.20;94.80;;;;;;4389894;32;20097;-63
2024/03/07 12:19:19;;;;;;;12.73;2.12;;;13.00;95.20;;;;;;4395361;32;20593;-66
2024/03/07 12:21:48;;;;;;;1.52;1.33;;;13.50;94.90;;;;;;4386462;32;20227;-66
2024/03/07 12:24:15;;;;;;;3.03;1.33;;;14.30;94.30;;;;;;4387580;32;21253;-64
2024/03/07 12:26:42;;;;;;;13.70;1.20;;;14.20;94.50;;;;;;4375834;32;20640;-66
2024/03/07 12:29:11;;;;;;;1.25;1.15;;;14.00;95.10;;;;;;4389084;32;20089;-65
2024/03/07 12:31:39;;;;;;;1.23;0.95;;;14.00;93.90;;;;;;4376582;32;20117;-68
2024/03/07 12:34:04;;;;;;;2.00;1.52;;;14.20;94.40;;;;;;4386803;32;20109;-65
2024/03/07 12:36:45;;;;;;;6.60;1.33;;;14.10;93.80;;;;;;4386784;32;20093;-65
2024/03/07 12:39:24;;;;;;;0.70;0.70;;;13.90;93.10;;;;;;4380798;32;20585;-65
2024/03/07 12:41:53;;;;;;;13.15;3.33;;;13.90;93.30;;;;;;4382573;32;20137;-65
2024/03/07 12:44:19;;;;;;;4.93;0.85;;;14.40;92.70;;;;;;4380564;32;20108;-65
2024/03/07 12:46:48;;;;;;;1.70;1.45;;;14.40;92.80;;;;;;4388211;32;20501;-64
2024/03/07 12:49:15;;;;;;;4.20;1.02;;;14.50;92.00;;;;;;4366118;32;20582;-65
2024/03/07 12:51:42;;;;;;;2.10;1.35;;;14.80;92.80;;;;;;4396542;32;20077;-66
2024/03/07 12:54:09;;;;;;;0.80;0.73;;;15.10;91.90;;;;;;4397217;32;20088;-65
2024/03/07 12:56:37;;;;;;;1.65;0.90;;;15.30;91.10;;;;;;4391842;32;20160;-65
2024/03/07 12:59:03;;;;;;;1.00;0.77;;;15.10;88.60;;;;;;4401368;32;20086;-66
2024/03/07 13:01:31;;;;;;;4.15;1.30;;;15.30;87.20;;;;;;4406065;32;20110;-65